Calvert, Alabama
Current Conditions -  °F | °C
As of 4:56 AM on Thursday 23 Oct 2014 (Local Time) from KMOB Reporting Station
Clear Clear  
Wind Chill: 45°   Ceiling: Unl
Heat Index: 49°   Visibility: 10mi
Dew Point: 45°   Wind: 9mph
Humidity: 86%   Direction: 40°NE
Pressure: 30.07"   Gusts: NA
Location:  31.15°N, 88.01°W
Report Text: KMOB 230956Z AUTO 04008KT 10SM CLR 09/07 A3007 RMK AO2 SLP182 T00940072
Loading
Personal Weather Stations






























Interactive Weather Map
Tropical Storm Tracking
New forecast layout! Learn more

10-Day Weather Forecast

Advertisements
Track Severe Weather on mobile